createdAt,value
2019-04-03T00:01:14.965Z,7.95
2019-04-03T00:03:43.433Z,8.03
2019-04-03T00:06:11.963Z,7.70
2019-04-03T00:08:40.423Z,7.97
2019-04-03T00:11:09.632Z,7.67
2019-04-03T00:13:41.517Z,8.43
2019-04-03T00:16:08.796Z,7.83
2019-04-03T00:18:37.263Z,8.63
2019-04-03T00:21:05.779Z,7.70
2019-04-03T00:23:34.214Z,7.28
2019-04-03T00:26:02.683Z,8.13
2019-04-03T00:28:31.137Z,7.00
2019-04-03T00:30:59.702Z,7.58
2019-04-03T00:33:28.479Z,7.75
2019-04-03T00:35:56.931Z,7.90
2019-04-03T00:38:25.394Z,8.10
2019-04-03T00:40:54.913Z,7.85
2019-04-03T00:43:24.783Z,7.72
2019-04-03T00:45:54.556Z,7.40
2019-04-03T00:48:25.842Z,7.67
2019-04-03T00:50:56.185Z,7.20
2019-04-03T00:53:24.323Z,7.30
2019-04-03T00:55:52.787Z,7.30
2019-04-03T00:58:42.485Z,6.95
2019-04-03T01:01:12.140Z,8.20
2019-04-03T01:03:41.410Z,8.73
2019-04-03T01:06:10.137Z,9.80
2019-04-03T01:08:38.652Z,8.70
2019-04-03T01:11:08.118Z,7.90
2019-04-03T01:13:36.690Z,9.38
2019-04-03T01:16:05.697Z,8.48
2019-04-03T01:18:35.153Z,8.30
2019-04-03T01:21:06.222Z,9.08
2019-04-03T01:23:37.208Z,9.18
2019-04-03T01:26:05.220Z,9.98
2019-04-03T01:28:33.674Z,10.10
2019-04-03T01:31:02.211Z,9.75
2019-04-03T01:33:30.738Z,10.15
2019-04-03T01:35:59.347Z,10.38
2019-04-03T01:38:28.299Z,10.30
2019-04-03T01:40:56.827Z,10.20
2019-04-03T01:43:25.598Z,11.08
2019-04-03T01:45:56.519Z,10.55
2019-04-03T01:48:24.535Z,10.13
2019-04-03T01:50:52.986Z,9.78
2019-04-03T01:53:21.436Z,10.65
2019-04-03T01:55:49.917Z,11.50
2019-04-03T01:58:18.372Z,11.90
2019-04-03T02:00:46.821Z,11.05
2019-04-03T02:03:15.284Z,11.10
2019-04-03T02:05:44.155Z,10.72
2019-04-03T02:08:14.593Z,11.73
2019-04-03T02:10:43.208Z,11.90
2019-04-03T02:13:11.658Z,10.65
2019-04-03T02:15:40.119Z,11.85
2019-04-03T02:18:08.671Z,12.53
2019-04-03T02:20:37.992Z,12.95
2019-04-03T02:23:06.445Z,12.47
2019-04-03T02:25:34.897Z,11.97
2019-04-03T02:28:04.408Z,11.35
2019-04-03T02:30:33.370Z,10.25
2019-04-03T02:33:02.118Z,11.48
2019-04-03T02:35:31.693Z,11.12
2019-04-03T02:38:00.279Z,12.45
2019-04-03T02:40:31.346Z,12.80
2019-04-03T02:42:59.040Z,14.10
2019-04-03T02:45:27.600Z,13.25
2019-04-03T02:47:56.121Z,13.88
2019-04-03T02:50:26.225Z,14.78
2019-04-03T02:52:57.990Z,15.30
2019-04-03T02:55:25.891Z,14.58
2019-04-03T02:57:54.511Z,14.80
2019-04-03T03:00:23.104Z,15.28
2019-04-03T03:02:52.429Z,14.30
2019-04-03T03:05:21.241Z,14.25
2019-04-03T03:07:51.031Z,16.45
2019-04-03T03:10:20.353Z,16.73
2019-04-03T03:12:49.720Z,17.25
2019-04-03T03:15:19.412Z,17.48
2019-04-03T03:17:49.202Z,17.40
2019-04-03T03:20:20.716Z,15.45
2019-04-03T03:22:51.175Z,16.97
2019-04-03T03:25:21.191Z,16.95
2019-04-03T03:27:50.185Z,16.82
2019-04-03T03:30:35.769Z,15.65
2019-04-03T03:32:50.638Z,16.23
2019-04-03T03:35:28.008Z,16.57
2019-04-03T03:37:50.765Z,16.17
2019-04-03T03:40:19.753Z,17.30
2019-04-03T03:42:49.247Z,16.30
2019-04-03T03:45:21.450Z,17.80
2019-04-03T03:47:53.274Z,17.77
2019-04-03T03:50:25.750Z,16.35
2019-04-03T03:52:57.070Z,18.65
2019-04-03T03:55:26.401Z,16.52
2019-04-03T03:57:57.447Z,18.60
2019-04-03T04:00:26.363Z,14.43
2019-04-03T04:02:55.429Z,14.58
2019-04-03T04:05:24.044Z,16.17
2019-04-03T04:07:53.498Z,15.03
2019-04-03T04:10:25.479Z,17.35
2019-04-03T04:12:53.686Z,17.10
2019-04-03T04:15:22.934Z,18.10
2019-04-03T04:17:52.787Z,19.25
2019-04-03T04:20:21.376Z,18.77
2019-04-03T04:22:51.381Z,15.85
2019-04-03T04:25:21.212Z,15.15
2019-04-03T04:27:49.853Z,15.38
2019-04-03T04:30:19.635Z,17.57
2019-04-03T04:32:48.232Z,17.82
2019-04-03T04:35:16.676Z,17.30
2019-04-03T04:37:45.140Z,17.70
2019-04-03T04:40:13.830Z,16.10
2019-04-03T04:42:42.317Z,17.17
2019-04-03T04:45:11.827Z,17.85
2019-04-03T04:47:41.186Z,18.42
2019-04-03T04:50:10.140Z,20.32
2019-04-03T04:52:38.595Z,20.40
2019-04-03T04:55:07.186Z,17.90
2019-04-03T04:57:35.705Z,16.12
2019-04-03T05:00:06.989Z,16.42
2019-04-03T05:02:35.468Z,19.00
2019-04-03T05:05:08.476Z,17.10
2019-04-03T05:07:36.498Z,17.50
2019-04-03T05:10:06.606Z,16.15
2019-04-03T05:12:35.451Z,17.05
2019-04-03T05:15:06.261Z,17.60
2019-04-03T05:17:34.981Z,15.68
2019-04-03T05:20:04.331Z,18.80
2019-04-03T05:22:32.878Z,20.40
2019-04-03T05:25:01.332Z,19.32
2019-04-03T05:27:30.040Z,18.45
2019-04-03T05:29:58.825Z,17.95
2019-04-03T05:32:27.314Z,18.90
2019-04-03T05:34:55.938Z,20.35
2019-04-03T05:37:25.601Z,19.73
2019-04-03T05:39:55.649Z,18.37
2019-04-03T05:42:24.377Z,20.23
2019-04-03T05:44:52.812Z,20.37
2019-04-03T05:47:21.274Z,21.35
2019-04-03T05:49:51.687Z,18.70
2019-04-03T05:52:19.914Z,20.12
2019-04-03T05:54:48.801Z,19.87
2019-04-03T05:57:17.358Z,20.05
2019-04-03T05:59:58.239Z,20.82
2019-04-03T06:02:20.036Z,18.85
2019-04-03T06:04:46.552Z,19.17
2019-04-03T06:07:17.419Z,21.15
2019-04-03T06:09:45.329Z,20.77
2019-04-03T06:12:14.520Z,19.25
2019-04-03T06:14:44.047Z,17.82
2019-04-03T06:17:12.509Z,17.52
2019-04-03T06:19:41.070Z,18.02
2019-04-03T06:22:10.382Z,16.73
2019-04-03T06:24:39.400Z,14.83
2019-04-03T06:27:10.085Z,14.05
2019-04-03T06:29:38.149Z,15.43
2019-04-03T06:32:06.643Z,15.80
2019-04-03T06:34:37.924Z,15.50
2019-04-03T06:37:05.445Z,14.25
2019-04-03T06:39:34.177Z,12.33
2019-04-03T06:42:02.723Z,10.80
2019-04-03T06:44:31.581Z,10.55
2019-04-03T06:47:00.895Z,10.08
2019-04-03T06:49:30.304Z,10.68
2019-04-03T06:51:58.872Z,11.88
2019-04-03T06:54:27.330Z,11.18
2019-04-03T06:56:55.857Z,9.85
2019-04-03T06:59:24.325Z,9.75
2019-04-03T07:01:53.565Z,9.90
2019-04-03T07:04:22.435Z,8.78
2019-04-03T07:06:50.981Z,9.05
2019-04-03T07:09:24.024Z,8.70
2019-04-03T07:11:49.951Z,8.85
2019-04-03T07:14:18.396Z,8.88
2019-04-03T07:16:46.951Z,9.65
2019-04-03T07:19:15.533Z,8.98
2019-04-03T07:21:44.027Z,8.28
2019-04-03T07:24:12.575Z,8.08
2019-04-03T07:26:41.049Z,8.88
2019-04-03T07:29:11.510Z,8.18
2019-04-03T07:31:39.769Z,10.32
2019-04-03T07:34:08.309Z,10.23
2019-04-03T07:36:37.031Z,9.10
2019-04-03T07:39:10.587Z,9.08
2019-04-03T07:41:40.904Z,8.58
2019-04-03T07:44:08.395Z,8.93
2019-04-03T07:46:37.058Z,8.63
2019-04-03T07:49:06.844Z,8.60
2019-04-03T07:51:35.820Z,8.55
2019-04-03T07:54:04.944Z,9.08
2019-04-03T07:56:33.744Z,8.30
2019-04-03T07:59:03.284Z,8.73
2019-04-03T08:01:32.219Z,9.20
2019-04-03T08:04:00.916Z,9.08
2019-04-03T08:06:29.883Z,9.63
2019-04-03T08:09:07.642Z,9.40
2019-04-03T08:11:29.178Z,9.88
2019-04-03T08:13:57.896Z,9.23
2019-04-03T08:16:27.091Z,6.65
2019-04-03T08:18:55.584Z,5.45
2019-04-03T08:21:24.129Z,4.92
2019-04-03T08:23:52.679Z,6.08
2019-04-03T08:26:21.202Z,5.45
2019-04-03T08:28:49.728Z,5.45
2019-04-03T08:31:18.592Z,5.10
2019-04-03T08:33:47.162Z,5.45
2019-04-03T08:36:24.335Z,4.83
2019-04-03T08:38:46.753Z,5.75
2019-04-03T08:41:15.366Z,4.28
2019-04-03T08:43:43.807Z,4.62
2019-04-03T08:46:12.364Z,4.85
2019-04-03T08:48:40.828Z,3.98
2019-04-03T08:51:09.656Z,3.75
2019-04-03T08:53:39.331Z,3.62
2019-04-03T08:56:08.184Z,4.53
2019-04-03T08:58:37.067Z,4.50
2019-04-03T09:01:05.753Z,4.25
2019-04-03T09:03:34.320Z,4.17
2019-04-03T09:06:03.138Z,4.60
2019-04-03T09:08:31.750Z,4.85
2019-04-03T09:11:00.739Z,4.17
2019-04-03T09:13:29.371Z,4.10
2019-04-03T09:15:59.421Z,3.92
2019-04-03T09:18:30.348Z,3.75
2019-04-03T09:20:59.074Z,3.98
2019-04-03T09:23:27.694Z,3.10
2019-04-03T09:25:56.269Z,3.50
2019-04-03T09:28:24.819Z,3.22
2019-04-03T09:30:54.113Z,2.95
2019-04-03T09:33:24.584Z,3.47
2019-04-03T09:35:53.240Z,3.40
2019-04-03T09:38:22.306Z,3.10
2019-04-03T09:40:50.785Z,3.35
2019-04-03T09:43:20.068Z,2.92
2019-04-03T09:45:50.158Z,3.10
2019-04-03T09:48:18.863Z,3.25
2019-04-03T09:50:47.800Z,3.27
2019-04-03T09:53:16.353Z,3.20
2019-04-03T09:55:44.979Z,3.30
2019-04-03T09:58:13.853Z,3.67
2019-04-03T10:00:42.894Z,3.00
2019-04-03T10:03:14.275Z,3.30
2019-04-03T10:05:42.962Z,2.72
2019-04-03T10:08:11.503Z,2.90
2019-04-03T10:10:40.237Z,2.62
2019-04-03T10:13:08.851Z,2.70
2019-04-03T10:15:37.499Z,2.72
2019-04-03T10:18:08.617Z,2.65
2019-04-03T10:20:36.673Z,3.00
2019-04-03T10:23:05.475Z,3.27
2019-04-03T10:25:36.526Z,3.33
2019-04-03T10:28:04.370Z,3.83
2019-04-03T10:30:33.200Z,3.72
2019-04-03T10:33:02.102Z,3.02
2019-04-03T10:35:30.678Z,3.02
2019-04-03T10:37:59.245Z,2.72
2019-04-03T10:40:27.822Z,2.50
2019-04-03T10:42:56.371Z,2.35
2019-04-03T10:45:24.982Z,2.60
2019-04-03T10:47:55.426Z,2.95
2019-04-03T10:50:23.827Z,3.20
2019-04-03T10:52:52.398Z,3.00
2019-04-03T10:55:21.325Z,3.40
2019-04-03T10:57:49.872Z,2.80
2019-04-03T11:00:18.898Z,2.40
2019-04-03T11:02:47.634Z,3.15
2019-04-03T11:05:16.542Z,2.25
2019-04-03T11:07:46.926Z,2.50
2019-04-03T11:10:16.626Z,2.83
2019-04-03T11:12:45.381Z,2.80
2019-04-03T11:15:14.734Z,2.70
2019-04-03T11:17:43.220Z,2.60
2019-04-03T11:20:13.412Z,2.27
2019-04-03T11:22:43.329Z,2.17
2019-04-03T11:25:15.278Z,2.40
2019-04-03T11:27:44.610Z,2.08
2019-04-03T11:30:18.767Z,2.47
2019-04-03T11:32:45.703Z,2.05
2019-04-03T11:35:15.507Z,2.30
2019-04-03T11:37:44.155Z,2.33
2019-04-03T11:40:17.403Z,2.40
2019-04-03T11:42:45.866Z,2.50
2019-04-03T11:45:16.129Z,2.17
2019-04-03T11:47:45.861Z,2.30
2019-04-03T11:50:17.081Z,2.30
2019-04-03T11:52:45.819Z,2.77
2019-04-03T11:55:14.901Z,2.75
2019-04-03T11:57:43.349Z,2.70
2019-04-03T12:00:15.528Z,2.58
2019-04-03T12:02:44.756Z,3.00
2019-04-03T12:05:19.982Z,2.75
2019-04-03T12:07:46.736Z,2.93
2019-04-03T12:10:15.711Z,3.22
2019-04-03T12:12:44.210Z,3.05
2019-04-03T12:15:15.625Z,3.00
2019-04-03T12:17:43.197Z,2.50
2019-04-03T12:20:15.156Z,2.58
2019-04-03T12:22:42.834Z,2.80
2019-04-03T12:25:11.433Z,2.60
2019-04-03T12:27:39.879Z,3.00
2019-04-03T12:30:09.717Z,2.83
2019-04-03T12:32:42.989Z,2.75
2019-04-03T12:35:09.781Z,3.00
2019-04-03T12:37:39.278Z,3.10
2019-04-03T12:40:09.322Z,2.98
2019-04-03T12:42:37.943Z,2.70
2019-04-03T12:45:08.480Z,2.70
2019-04-03T12:47:37.309Z,3.22
2019-04-03T12:50:07.695Z,2.70
2019-04-03T12:52:36.578Z,2.95
2019-04-03T12:55:08.593Z,3.25
2019-04-03T12:57:39.255Z,2.55
2019-04-03T13:00:12.742Z,2.70
2019-04-03T13:02:41.370Z,2.80
2019-04-03T13:05:10.225Z,3.20
2019-04-03T13:07:38.701Z,3.20
2019-04-03T13:10:08.752Z,3.47
2019-04-03T13:12:37.341Z,3.20
2019-04-03T13:15:10.556Z,3.77
2019-04-03T13:17:39.384Z,3.43
2019-04-03T13:20:09.636Z,4.25
2019-04-03T13:22:40.027Z,3.55
2019-04-03T13:25:09.597Z,3.70
2019-04-03T13:27:38.176Z,3.95
2019-04-03T13:30:12.425Z,3.50
2019-04-03T13:32:41.040Z,3.60
2019-04-03T13:35:10.191Z,3.85
2019-04-03T13:37:39.144Z,3.55
2019-04-03T13:40:08.827Z,3.20
2019-04-03T13:42:37.962Z,2.75
2019-04-03T13:45:09.638Z,4.20
2019-04-03T13:47:41.731Z,3.30
2019-04-03T13:50:09.949Z,3.58
2019-04-03T13:52:42.894Z,3.58
2019-04-03T13:55:09.819Z,3.72
2019-04-03T13:57:38.723Z,4.00
2019-04-03T14:00:19.657Z,3.80
2019-04-03T14:02:40.401Z,4.22
2019-04-03T14:05:09.191Z,4.00
2019-04-03T14:07:40.379Z,4.12
2019-04-03T14:10:10.936Z,3.60
2019-04-03T14:12:43.542Z,3.90
2019-04-03T14:15:10.065Z,3.50
2019-04-03T14:17:38.715Z,3.95
2019-04-03T14:20:08.551Z,3.60
2019-04-03T14:22:37.380Z,4.20
2019-04-03T14:25:18.033Z,5.33
2019-04-03T14:27:37.342Z,4.67
2019-04-03T14:30:11.147Z,5.47
2019-04-03T14:32:39.978Z,4.70
2019-04-03T14:35:40.573Z,4.33
2019-04-03T14:37:40.037Z,4.70
2019-04-03T14:40:10.984Z,4.65
2019-04-03T14:42:38.826Z,4.10
2019-04-03T14:45:08.395Z,4.20
2019-04-03T14:47:36.851Z,5.12
2019-04-03T14:50:09.086Z,3.70
2019-04-03T14:52:37.647Z,3.27
2019-04-03T14:55:18.141Z,3.47
2019-04-03T14:57:37.556Z,3.75
2019-04-03T15:00:24.956Z,4.30
2019-04-03T15:02:42.144Z,3.52
2019-04-03T15:05:11.084Z,7.50
2019-04-03T15:07:40.423Z,4.05
2019-04-03T15:10:11.024Z,3.90
2019-04-03T15:12:40.306Z,4.12
2019-04-03T15:15:09.963Z,3.70
2019-04-03T15:17:38.866Z,3.25
2019-04-03T15:20:10.329Z,3.60
2019-04-03T15:22:39.460Z,3.37
2019-04-03T15:25:08.871Z,3.70
2019-04-03T15:27:38.114Z,3.37
2019-04-03T15:30:10.977Z,3.22
2019-04-03T15:32:40.128Z,3.00
2019-04-03T15:35:09.204Z,3.92
2019-04-03T15:37:39.922Z,3.47
2019-04-03T15:40:09.277Z,2.70
2019-04-03T15:42:39.797Z,2.75
2019-04-03T15:45:10.524Z,2.80
2019-04-03T15:47:44.998Z,3.30
2019-04-03T15:50:10.736Z,3.40
2019-04-03T15:52:39.350Z,3.37
2019-04-03T15:55:09.628Z,3.00
2019-04-03T15:57:40.364Z,2.67
2019-04-03T16:00:13.908Z,2.60
2019-04-03T16:05:15.622Z,3.00
2019-04-03T16:07:44.278Z,3.55
2019-04-03T16:10:14.114Z,3.62
2019-04-03T16:12:43.508Z,5.17
2019-04-03T16:15:13.798Z,5.70
2019-04-03T16:17:42.333Z,5.70
2019-04-03T16:20:11.850Z,6.55
2019-04-03T16:22:40.338Z,5.28
2019-04-03T16:25:09.894Z,5.67
2019-04-03T16:27:38.407Z,5.97
2019-04-03T16:30:09.559Z,5.20
2019-04-03T16:32:38.223Z,5.00
2019-04-03T16:35:12.609Z,5.08
2019-04-03T16:37:40.423Z,5.35
2019-04-03T16:40:10.222Z,4.65
2019-04-03T16:42:38.693Z,4.65
2019-04-03T16:45:09.850Z,3.85
2019-04-03T16:47:39.005Z,3.70
2019-04-03T16:50:09.066Z,3.87
2019-04-03T16:52:38.188Z,3.67
2019-04-03T16:55:08.161Z,4.10
2019-04-03T16:57:37.170Z,4.37
2019-04-03T17:00:10.345Z,3.92
2019-04-03T17:02:39.107Z,4.05
2019-04-03T17:05:11.675Z,4.33
2019-04-03T17:07:40.526Z,4.55
2019-04-03T17:10:10.755Z,4.65
2019-04-03T17:12:39.409Z,4.67
2019-04-03T17:15:09.892Z,5.40
2019-04-03T17:17:39.073Z,4.70
2019-04-03T17:20:09.241Z,5.03
2019-04-03T17:22:40.801Z,5.35
2019-04-03T17:25:08.984Z,5.30
2019-04-03T17:27:37.807Z,5.33
2019-04-03T17:30:08.463Z,5.25
2019-04-03T17:32:37.678Z,5.03
2019-04-03T17:35:09.914Z,5.70
2019-04-03T17:37:38.517Z,5.40
2019-04-03T17:40:10.147Z,5.33
2019-04-03T17:42:41.782Z,5.00
2019-04-03T17:45:10.439Z,7.53
2019-04-03T17:47:41.307Z,20.62
2019-04-03T17:50:10.019Z,5.90
2019-04-03T17:52:38.507Z,4.83
2019-04-03T17:55:10.012Z,5.37
2019-04-03T17:57:39.619Z,6.28
2019-04-03T18:00:17.185Z,5.15
2019-04-03T18:02:47.339Z,4.95
2019-04-03T18:05:15.970Z,5.72
2019-04-03T18:07:44.467Z,5.62
2019-04-03T18:10:13.573Z,6.50
2019-04-03T18:12:42.096Z,6.37
2019-04-03T18:15:11.009Z,7.67
2019-04-03T18:17:39.472Z,8.10
2019-04-03T18:20:08.986Z,10.38
2019-04-03T18:22:37.482Z,10.95
2019-04-03T18:25:08.300Z,10.25
2019-04-03T18:27:37.306Z,10.45
2019-04-03T18:30:11.179Z,10.10
2019-04-03T18:32:38.981Z,17.17
2019-04-03T18:35:08.369Z,11.88
2019-04-03T18:37:36.938Z,13.35
2019-04-03T18:40:07.836Z,10.25
2019-04-03T18:42:36.293Z,11.65
2019-04-03T18:45:06.107Z,16.42
2019-04-03T18:47:41.080Z,17.42
2019-04-03T18:50:06.133Z,22.90
2019-04-03T18:52:34.654Z,25.35
2019-04-03T18:55:03.188Z,36.15
2019-04-03T18:57:31.897Z,17.23
2019-04-03T19:00:00.674Z,15.53
2019-04-03T19:02:29.465Z,10.85
2019-04-03T19:05:02.180Z,11.88
2019-04-03T19:07:28.124Z,10.45
2019-04-03T19:10:06.555Z,11.25
2019-04-03T19:12:35.342Z,12.70
2019-04-03T19:14:56.946Z,10.65
2019-04-03T19:17:25.588Z,17.25
2019-04-03T19:20:04.062Z,24.72
2019-04-03T19:22:25.698Z,19.52
2019-04-03T19:24:55.007Z,18.32
2019-04-03T19:27:23.461Z,11.57
2019-04-03T19:29:51.985Z,10.75
2019-04-03T19:32:20.469Z,10.10
2019-04-03T19:34:51.985Z,9.45
2019-04-03T19:37:19.471Z,10.03
2019-04-03T19:39:47.970Z,10.15
2019-04-03T19:42:16.497Z,10.23
2019-04-03T19:44:44.983Z,11.50
2019-04-03T19:47:13.566Z,11.05
2019-04-03T19:49:42.012Z,10.80
2019-04-03T19:52:10.488Z,12.20
2019-04-03T19:54:38.944Z,12.05
2019-04-03T19:57:07.478Z,11.03
2019-04-03T19:59:35.965Z,10.68
2019-04-03T20:02:04.547Z,9.63
2019-04-03T20:04:32.993Z,9.78
2019-04-03T20:07:01.580Z,10.18
2019-04-03T20:09:32.184Z,9.68
2019-04-03T20:12:00.495Z,10.05
2019-04-03T20:14:29.102Z,10.35
2019-04-03T20:16:58.553Z,11.03
2019-04-03T20:19:27.360Z,10.38
2019-04-03T20:21:56.266Z,9.90
2019-04-03T20:24:25.388Z,9.03
2019-04-03T20:26:54.488Z,9.15
2019-04-03T20:29:22.969Z,8.63
2019-04-03T20:31:51.443Z,9.25
2019-04-03T20:34:19.960Z,9.00
2019-04-03T20:36:51.034Z,8.48
2019-04-03T20:39:18.690Z,8.00
2019-04-03T20:41:47.131Z,7.72
2019-04-03T20:44:17.366Z,7.78
2019-04-03T20:46:45.877Z,7.80
2019-04-03T20:49:14.763Z,8.03
2019-04-03T20:51:43.252Z,7.92
2019-04-03T20:54:12.032Z,7.33
2019-04-03T20:56:40.888Z,6.30
2019-04-03T20:59:12.089Z,6.58
2019-04-03T21:01:39.610Z,6.62
2019-04-03T21:04:08.050Z,6.85
2019-04-03T21:06:37.405Z,7.42
2019-04-03T21:09:07.327Z,7.87
2019-04-03T21:11:35.771Z,6.78
2019-04-03T21:14:05.739Z,7.20
2019-04-03T21:16:34.598Z,6.95
2019-04-03T21:19:03.042Z,7.25
2019-04-03T21:21:33.040Z,6.85
2019-04-03T21:24:03.997Z,7.03
2019-04-03T21:26:33.088Z,7.15
2019-04-03T21:29:01.570Z,7.78
2019-04-03T21:31:30.022Z,6.85
2019-04-03T21:34:01.593Z,7.47
2019-04-03T21:36:28.660Z,7.00
2019-04-03T21:38:57.108Z,7.55
2019-04-03T21:41:25.565Z,8.10
2019-04-03T21:43:55.421Z,6.87
2019-04-03T21:46:24.420Z,7.40
2019-04-03T21:48:52.862Z,7.10
2019-04-03T21:51:21.583Z,7.37
2019-04-03T21:53:50.110Z,7.83
2019-04-03T21:56:18.557Z,8.45
2019-04-03T21:58:47.108Z,8.08
2019-04-03T22:01:20.798Z,7.60
2019-04-03T22:03:51.400Z,7.80
2019-04-03T22:06:20.107Z,7.70
2019-04-03T22:08:51.353Z,7.95
2019-04-03T22:11:19.045Z,7.37
2019-04-03T22:13:47.669Z,8.13
2019-04-03T22:16:16.188Z,8.78
2019-04-03T22:18:44.640Z,8.70
2019-04-03T22:21:13.204Z,7.37
2019-04-03T22:23:41.986Z,8.18
2019-04-03T22:26:10.506Z,8.23
2019-04-03T22:28:39.068Z,8.63
2019-04-03T22:31:07.720Z,8.18
2019-04-03T22:33:36.164Z,8.98
2019-04-03T22:36:05.068Z,7.92
2019-04-03T22:38:36.947Z,8.13
2019-04-03T22:41:03.824Z,8.13
2019-04-03T22:43:32.306Z,8.73
2019-04-03T22:46:00.744Z,9.08
2019-04-03T22:48:29.200Z,10.05
2019-04-03T22:50:57.688Z,9.30
2019-04-03T22:53:26.147Z,8.98
2019-04-03T22:55:54.958Z,9.28
2019-04-03T22:58:23.549Z,8.90
2019-04-03T23:00:51.996Z,9.53
2019-04-03T23:03:20.443Z,8.63
2019-04-03T23:05:48.930Z,10.45
2019-04-03T23:08:17.375Z,9.08
2019-04-03T23:10:45.808Z,9.58
2019-04-03T23:13:14.283Z,9.80
2019-04-03T23:15:42.733Z,10.48
2019-04-03T23:18:11.172Z,9.90
2019-04-03T23:20:39.657Z,10.03
2019-04-03T23:23:08.098Z,9.75
2019-04-03T23:25:36.754Z,10.25
2019-04-03T23:28:05.301Z,10.25
2019-04-03T23:30:33.774Z,9.78
2019-04-03T23:33:02.296Z,10.25
2019-04-03T23:35:30.774Z,9.05
2019-04-03T23:37:59.233Z,10.03
2019-04-03T23:40:27.751Z,9.05
2019-04-03T23:42:56.227Z,9.33
2019-04-03T23:45:27.791Z,10.53
2019-04-03T23:47:56.283Z,9.98
2019-04-03T23:50:24.807Z,10.18
2019-04-03T23:52:53.641Z,11.10
2019-04-03T23:55:22.355Z,10.63
2019-04-03T23:57:50.838Z,11.40
